Time;durP1;ratioP1;P1;durP2;ratioP2;P2;SDS_P1;SDS_P2;PMS_P1;PMS_P2;Temp;Humidity;BMP_temperature;BMP_pressure;BME280_temperature;BME280_humidity;BME280_pressure;Samples;Min_cycle;Max_cycle;Signal;HPM_P1;HPM_P2
2022/01/31 00:00:37;;;;;;;;;;;6.40;80.60;;;;;;5051556;28;19925;-67
2022/01/31 00:03:04;;;;;;;;;;;6.50;80.70;;;;;;5051528;28;19932;-68
2022/01/31 00:05:32;;;;;;;;;;;6.50;80.70;;;;;;5055365;28;19925;-67
2022/01/31 00:07:59;;;;;;;;;;;6.50;80.70;;;;;;5043764;28;19950;-68
2022/01/31 00:10:29;;;;;;;;;;;6.50;80.50;;;;;;5036186;28;19925;-68
2022/01/31 00:13:07;;;;;;;;;;;6.50;80.90;;;;;;5036557;28;19925;-68
2022/01/31 00:15:39;;;;;;;;;;;6.40;81.70;;;;;;5044178;28;19932;-68
2022/01/31 00:18:07;;;;;;;;;;;6.30;82.00;;;;;;5066913;28;19983;-68
2022/01/31 00:20:35;;;;;;;;;;;6.30;82.40;;;;;;5058897;28;19925;-68
2022/01/31 00:23:02;;;;;;;;;;;6.20;82.50;;;;;;5055564;28;19925;-68
2022/01/31 00:25:30;;;;;;;;;;;6.20;83.00;;;;;;5054789;28;19924;-68
2022/01/31 00:27:57;;;;;;;;;;;6.20;83.10;;;;;;5055328;28;20293;-67
2022/01/31 00:30:25;;;;;;;;;;;6.10;83.00;;;;;;5053115;28;19948;-68
2022/01/31 00:32:54;;;;;;;;;;;6.10;82.90;;;;;;5037304;28;19925;-68
2022/01/31 00:35:25;;;;;;;;;;;6.10;83.00;;;;;;5070240;28;19952;-67
2022/01/31 00:37:53;;;;;;;;;;;6.10;83.00;;;;;;5063783;28;20148;-68
2022/01/31 00:40:20;;;;;;;;;;;6.10;82.90;;;;;;5055094;28;19925;-68
2022/01/31 00:42:48;;;;;;;;;;;6.10;82.80;;;;;;5055148;28;19925;-69
2022/01/31 00:45:24;;;;;;;;;;;6.10;82.40;;;;;;5055006;28;19928;-68
2022/01/31 00:48:03;;;;;;;;;;;6.10;81.80;;;;;;5055287;28;19932;-68
2022/01/31 00:50:39;;;;;;;;;;;6.10;81.30;;;;;;5053336;28;19933;-68
2022/01/31 00:53:07;;;;;;;;;;;6.10;81.10;;;;;;5053466;28;20301;-68
2022/01/31 00:55:34;;;;;;;;;;;6.20;80.50;;;;;;5053678;28;19924;-67
2022/01/31 00:58:01;;;;;;;;;;;6.20;80.00;;;;;;5053488;28;20294;-67
2022/01/31 01:00:29;;;;;;;;;;;6.20;79.80;;;;;;5059999;28;19924;-69
2022/01/31 01:02:57;;;;;;;;;;;6.20;79.00;;;;;;5054980;28;20406;-67
2022/01/31 01:05:24;;;;;;;;;;;6.20;78.60;;;;;;5020153;28;19925;-69
2022/01/31 01:07:52;;;;;;;;;;;6.30;77.80;;;;;;5053357;28;19928;-68
2022/01/31 01:10:20;;;;;;;;;;;6.30;78.10;;;;;;5053444;28;19925;-68
2022/01/31 01:12:47;;;;;;;;;;;6.20;78.20;;;;;;5053757;28;19925;-69
2022/01/31 01:15:15;;;;;;;;;;;6.20;78.30;;;;;;5053549;28;20418;-68
2022/01/31 01:17:43;;;;;;;;;;;6.20;78.80;;;;;;5036381;28;19925;-68
2022/01/31 01:20:11;;;;;;;;;;;6.20;79.10;;;;;;5054468;28;19925;-68
2022/01/31 01:22:38;;;;;;;;;;;6.10;79.40;;;;;;5054300;28;19924;-67
2022/01/31 01:25:07;;;;;;;;;;;6.10;79.80;;;;;;5054146;28;20370;-67
2022/01/31 01:27:34;;;;;;;;;;;6.10;80.00;;;;;;5052104;28;19948;-68
2022/01/31 01:30:03;;;;;;;;;;;6.20;79.50;;;;;;5052609;28;20401;-68
2022/01/31 01:32:35;;;;;;;;;;;6.20;79.30;;;;;;5053877;28;19929;-68
2022/01/31 01:35:05;;;;;;;;;;;6.30;78.60;;;;;;5052709;28;20290;-68
2022/01/31 01:37:33;;;;;;;;;;;6.30;78.30;;;;;;5052502;28;19925;-68
2022/01/31 01:40:01;;;;;;;;;;;6.30;77.80;;;;;;5053573;28;19925;-68
2022/01/31 01:42:28;;;;;;;;;;;6.30;77.50;;;;;;5036341;28;19924;-68
2022/01/31 01:44:55;;;;;;;;;;;6.30;77.50;;;;;;5032938;28;19925;-68
2022/01/31 01:47:25;;;;;;;;;;;6.30;77.60;;;;;;5032850;28;20299;-68
2022/01/31 01:49:53;;;;;;;;;;;6.20;77.30;;;;;;5036170;28;19933;-68
2022/01/31 01:52:25;;;;;;;;;;;6.30;76.30;;;;;;5037135;28;19932;-68
2022/01/31 01:54:54;;;;;;;;;;;6.30;76.30;;;;;;5052559;28;20302;-68
2022/01/31 01:57:23;;;;;;;;;;;6.40;74.90;;;;;;5052341;28;19925;-69
2022/01/31 01:59:57;;;;;;;;;;;6.40;74.80;;;;;;5052540;28;19932;-68
2022/01/31 02:02:43;;;;;;;;;;;6.40;74.90;;;;;;5052284;28;19936;-68
2022/01/31 02:05:14;;;;;;;;;;;6.40;75.20;;;;;;5051620;28;20378;-67
2022/01/31 02:07:43;;;;;;;;;;;6.40;75.40;;;;;;5052157;28;19924;-68
2022/01/31 02:10:13;;;;;;;;;;;6.40;75.30;;;;;;5052702;28;19925;-67
2022/01/31 02:13:05;;;;;;;;;;;6.30;75.50;;;;;;5039578;28;19925;-68
2022/01/31 02:15:51;;;;;;;;;;;6.30;75.60;;;;;;5053183;28;19924;-68
2022/01/31 02:18:44;;;;;;;;;;;6.30;75.50;;;;;;5051909;28;19932;-68
2022/01/31 02:21:18;;;;;;;;;;;6.30;75.50;;;;;;5052592;28;19928;-68
2022/01/31 02:23:47;;;;;;;;;;;6.30;75.40;;;;;;5052358;28;19932;-67
2022/01/31 02:26:37;;;;;;;;;;;6.30;75.10;;;;;;5052039;28;19925;-67
2022/01/31 02:29:12;;;;;;;;;;;6.30;74.60;;;;;;5052104;28;19944;-67
2022/01/31 02:31:46;;;;;;;;;;;6.40;74.40;;;;;;5051595;28;19925;-67
2022/01/31 02:34:14;;;;;;;;;;;6.30;74.60;;;;;;5050748;28;20333;-68
2022/01/31 02:36:42;;;;;;;;;;;6.30;75.50;;;;;;5058384;28;19929;-68
2022/01/31 02:39:10;;;;;;;;;;;6.20;77.10;;;;;;5055107;28;20118;-68
2022/01/31 02:41:39;;;;;;;;;;;6.00;78.00;;;;;;5051599;28;19925;-68
2022/01/31 02:44:13;;;;;;;;;;;5.80;78.40;;;;;;5035135;28;19924;-67
2022/01/31 02:46:54;;;;;;;;;;;5.80;77.90;;;;;;5067887;28;19932;-68
2022/01/31 02:49:25;;;;;;;;;;;5.60;78.40;;;;;;5068010;28;19931;-66
2022/01/31 02:52:00;;;;;;;;;;;5.30;79.30;;;;;;5056375;28;19947;-64
2022/01/31 02:54:29;;;;;;;;;;;5.10;80.80;;;;;;5051450;28;19925;-63
2022/01/31 02:56:57;;;;;;;;;;;4.80;81.80;;;;;;5051313;28;19928;-64
2022/01/31 02:59:26;;;;;;;;;;;4.60;82.80;;;;;;5051198;28;20301;-64
2022/01/31 03:01:53;;;;;;;;;;;4.40;84.10;;;;;;5053040;28;19947;-63
2022/01/31 03:04:21;;;;;;;;;;;4.40;84.80;;;;;;5058587;28;20438;-64
2022/01/31 03:06:49;;;;;;;;;;;4.40;85.20;;;;;;5071517;28;19924;-64
2022/01/31 03:09:21;;;;;;;;;;;4.40;85.30;;;;;;5057777;28;19929;-64
2022/01/31 03:11:52;;;;;;;;;;;4.40;85.00;;;;;;5065645;28;20267;-64
2022/01/31 03:14:25;;;;;;;;;;;4.50;84.90;;;;;;5061208;28;19925;-64
2022/01/31 03:16:56;;;;;;;;;;;4.50;84.90;;;;;;5051434;28;19932;-64
2022/01/31 03:19:42;;;;;;;;;;;4.60;85.00;;;;;;5034229;28;19929;-65
2022/01/31 03:22:10;;;;;;;;;;;4.60;85.30;;;;;;5034451;28;19948;-65
2022/01/31 03:24:37;;;;;;;;;;;4.70;85.40;;;;;;5051765;28;19925;-69
2022/01/31 03:27:05;;;;;;;;;;;4.80;85.80;;;;;;5015096;28;19925;-65
2022/01/31 03:29:32;;;;;;;;;;;4.60;86.20;;;;;;5041684;28;19925;-64
2022/01/31 03:32:00;;;;;;;;;;;4.50;86.10;;;;;;5050669;28;19932;-64
2022/01/31 03:34:27;;;;;;;;;;;4.40;86.40;;;;;;5051014;28;19925;-63
2022/01/31 03:36:55;;;;;;;;;;;4.30;86.60;;;;;;5050723;28;19925;-64
2022/01/31 03:39:25;;;;;;;;;;;4.30;86.70;;;;;;5050722;28;20294;-63
2022/01/31 03:41:52;;;;;;;;;;;4.30;86.50;;;;;;5050854;28;20370;-63
2022/01/31 03:44:20;;;;;;;;;;;4.20;86.50;;;;;;5050789;28;19928;-63
2022/01/31 03:46:52;;;;;;;;;;;4.30;86.60;;;;;;5050794;28;19925;-63
2022/01/31 03:49:20;;;;;;;;;;;4.30;86.50;;;;;;5034154;28;19932;-64
2022/01/31 03:51:53;;;;;;;;;;;4.20;86.40;;;;;;5050695;28;20512;-64
2022/01/31 03:54:32;;;;;;;;;;;4.20;86.30;;;;;;5051967;28;20278;-65
2022/01/31 03:56:59;;;;;;;;;;;4.30;86.20;;;;;;5045585;28;19924;-65
2022/01/31 03:59:47;;;;;;;;;;;4.30;85.70;;;;;;5050866;28;19925;-65
2022/01/31 04:02:15;;;;;;;;;;;4.30;85.20;;;;;;5050075;28;19935;-65
2022/01/31 04:04:43;;;;;;;;;;;4.40;85.00;;;;;;5051978;28;19925;-65
2022/01/31 04:07:10;;;;;;;;;;;4.50;84.60;;;;;;5052151;28;19925;-66
2022/01/31 04:09:38;;;;;;;;;;;4.50;84.20;;;;;;5051912;28;19925;-65
2022/01/31 04:12:05;;;;;;;;;;;4.50;84.10;;;;;;5050429;28;19931;-66
2022/01/31 04:14:32;;;;;;;;;;;4.50;83.90;;;;;;5051869;28;19932;-66
2022/01/31 04:17:00;;;;;;;;;;;4.50;83.60;;;;;;5051662;28;19924;-66
2022/01/31 04:19:27;;;;;;;;;;;4.60;83.20;;;;;;5050622;28;19925;-67
2022/01/31 04:21:55;;;;;;;;;;;4.60;83.00;;;;;;5051196;28;19929;-67
2022/01/31 04:24:29;;;;;;;;;;;4.70;82.10;;;;;;5051929;28;19929;-67
2022/01/31 04:27:00;;;;;;;;;;;4.80;81.70;;;;;;5050204;28;19925;-67
2022/01/31 04:29:30;;;;;;;;;;;4.90;81.30;;;;;;5051476;28;19925;-67
2022/01/31 04:31:57;;;;;;;;;;;5.00;80.50;;;;;;5051582;28;19925;-68
2022/01/31 04:34:25;;;;;;;;;;;5.00;81.00;;;;;;5052151;28;19936;-67
2022/01/31 04:36:52;;;;;;;;;;;5.00;80.90;;;;;;5049901;28;19928;-67
2022/01/31 04:39:20;;;;;;;;;;;5.00;81.60;;;;;;5050857;28;19931;-65
2022/01/31 04:41:48;;;;;;;;;;;4.80;82.40;;;;;;5050121;28;20413;-66
2022/01/31 04:44:17;;;;;;;;;;;4.80;82.80;;;;;;5053437;28;19929;-66
2022/01/31 04:46:49;;;;;;;;;;;4.70;83.00;;;;;;5051906;28;19924;-65
2022/01/31 04:49:18;;;;;;;;;;;4.60;82.90;;;;;;5051217;28;19929;-65
2022/01/31 04:51:46;;;;;;;;;;;4.60;82.00;;;;;;5054111;28;20298;-67
2022/01/31 04:54:13;;;;;;;;;;;4.60;81.30;;;;;;5055115;28;19924;-67
2022/01/31 04:56:42;;;;;;;;;;;4.50;81.10;;;;;;5054347;28;19944;-66
2022/01/31 04:59:10;;;;;;;;;;;4.50;81.50;;;;;;5052785;28;19925;-66
2022/01/31 05:01:39;;;;;;;;;;;4.50;81.80;;;;;;5054803;28;19925;-67
2022/01/31 05:04:07;;;;;;;;;;;4.40;81.90;;;;;;5059325;28;20381;-68
2022/01/31 05:06:37;;;;;;;;;;;4.40;82.10;;;;;;5057082;28;20409;-67
2022/01/31 05:09:05;;;;;;;;;;;4.40;82.40;;;;;;5053853;28;19932;-68
2022/01/31 05:11:33;;;;;;;;;;;4.40;82.50;;;;;;5054229;28;19951;-67
2022/01/31 05:14:00;;;;;;;;;;;4.30;82.80;;;;;;5053602;28;19925;-68
2022/01/31 05:16:27;;;;;;;;;;;4.30;83.00;;;;;;5047611;28;19952;-67
2022/01/31 05:19:02;;;;;;;;;;;4.30;83.30;;;;;;5057449;28;20271;-67
2022/01/31 05:21:30;;;;;;;;;;;4.30;83.40;;;;;;5075231;28;19925;-67
2022/01/31 05:23:57;;;;;;;;;;;4.20;83.30;;;;;;5058043;28;19925;-67
2022/01/31 05:26:24;;;;;;;;;;;4.20;83.10;;;;;;5051215;28;19933;-67
2022/01/31 05:28:54;;;;;;;;;;;4.30;82.90;;;;;;5054745;28;19936;-77
2022/01/31 05:31:21;;;;;;;;;;;4.30;82.80;;;;;;5053481;28;19932;-67
2022/01/31 05:33:49;;;;;;;;;;;4.40;83.00;;;;;;5056243;28;19931;-68
2022/01/31 05:36:16;;;;;;;;;;;4.40;83.20;;;;;;5054405;28;19925;-67
2022/01/31 05:38:44;;;;;;;;;;;4.50;83.60;;;;;;5054477;28;19948;-67
2022/01/31 05:41:18;;;;;;;;;;;4.50;84.00;;;;;;5054537;28;19932;-66
2022/01/31 05:43:46;;;;;;;;;;;4.40;84.50;;;;;;5069765;28;19925;-66
2022/01/31 05:46:13;;;;;;;;;;;4.30;84.00;;;;;;5054114;28;20078;-66
2022/01/31 05:48:41;;;;;;;;;;;4.20;84.30;;;;;;5056148;28;19925;-66
2022/01/31 05:51:14;;;;;;;;;;;4.00;83.80;;;;;;5073342;28;19924;-65
2022/01/31 05:53:42;;;;;;;;;;;4.00;83.10;;;;;;5074106;28;19939;-67
2022/01/31 05:56:10;;;;;;;;;;;3.90;82.30;;;;;;5074004;28;19932;-67
2022/01/31 05:58:38;;;;;;;;;;;4.00;81.80;;;;;;5071599;28;19928;-66
2022/01/31 06:01:06;;;;;;;;;;;4.00;81.80;;;;;;5061370;28;19928;-67
2022/01/31 06:03:34;;;;;;;;;;;4.10;81.50;;;;;;5072488;28;19932;-67
2022/01/31 06:06:02;;;;;;;;;;;4.10;81.40;;;;;;5073792;28;20319;-65
2022/01/31 06:08:29;;;;;;;;;;;4.20;81.20;;;;;;5073671;28;19925;-66
2022/01/31 06:10:57;;;;;;;;;;;4.20;80.90;;;;;;5073007;28;19924;-67
2022/01/31 06:13:28;;;;;;;;;;;4.30;80.50;;;;;;5073549;28;19932;-67
2022/01/31 06:15:55;;;;;;;;;;;4.30;79.90;;;;;;5071822;28;19929;-68
2022/01/31 06:18:23;;;;;;;;;;;4.30;79.50;;;;;;5072885;28;20309;-67
2022/01/31 06:20:50;;;;;;;;;;;4.30;79.30;;;;;;5054353;28;20401;-68
2022/01/31 06:23:17;;;;;;;;;;;4.30;78.90;;;;;;5042369;28;19935;-67
2022/01/31 06:25:45;;;;;;;;;;;4.30;78.60;;;;;;5053366;28;19931;-68
2022/01/31 06:28:12;;;;;;;;;;;4.30;76.90;;;;;;5052225;28;19936;-68
2022/01/31 06:30:40;;;;;;;;;;;4.40;76.40;;;;;;5043277;28;19939;-68
2022/01/31 06:33:07;;;;;;;;;;;4.40;76.30;;;;;;5071723;28;20417;-69
2022/01/31 06:35:35;;;;;;;;;;;4.40;75.30;;;;;;5073276;28;19924;-68
2022/01/31 06:38:02;;;;;;;;;;;4.40;75.40;;;;;;5072886;28;19924;-68
2022/01/31 06:40:30;;;;;;;;;;;4.40;75.40;;;;;;5068992;28;19924;-69
2022/01/31 06:42:57;;;;;;;;;;;4.40;74.80;;;;;;5071894;28;19924;-69
2022/01/31 06:45:24;;;;;;;;;;;4.40;74.70;;;;;;5072698;28;19925;-69
2022/01/31 06:47:52;;;;;;;;;;;4.40;75.00;;;;;;5073007;28;20309;-68
2022/01/31 06:50:19;;;;;;;;;;;4.30;75.50;;;;;;5071122;28;19932;-68
2022/01/31 06:52:50;;;;;;;;;;;4.30;75.60;;;;;;5072419;28;19935;-69
2022/01/31 06:55:21;;;;;;;;;;;4.30;75.90;;;;;;5071490;28;20404;-67
2022/01/31 06:57:51;;;;;;;;;;;4.30;75.80;;;;;;5072465;28;20381;-69
2022/01/31 07:00:19;;;;;;;;;;;4.30;75.80;;;;;;5072245;28;19925;-68
2022/01/31 07:02:48;;;;;;;;;;;4.30;76.00;;;;;;5072627;28;19932;-68
2022/01/31 07:05:16;;;;;;;;;;;4.40;76.00;;;;;;5072631;28;19925;-69
2022/01/31 07:07:44;;;;;;;;;;;4.40;76.20;;;;;;5070786;28;19929;-68
2022/01/31 07:10:12;;;;;;;;;;;4.50;76.40;;;;;;5071246;28;19931;-69
2022/01/31 07:12:41;;;;;;;;;;;4.50;76.20;;;;;;5071261;28;20293;-69
2022/01/31 07:15:09;;;;;;;;;;;4.50;76.20;;;;;;5054349;28;19931;-67
2022/01/31 07:17:40;;;;;;;;;;;4.50;76.30;;;;;;5073345;28;20255;-67
2022/01/31 07:20:11;;;;;;;;;;;4.50;76.40;;;;;;5069738;28;20278;-68
2022/01/31 07:22:40;;;;;;;;;;;4.50;76.60;;;;;;5066730;28;20030;-69
2022/01/31 07:25:19;;;;;;;;;;;4.40;76.80;;;;;;5067643;28;19928;-68
2022/01/31 07:27:47;;;;;;;;;;;4.40;77.10;;;;;;5067250;28;19928;-68
2022/01/31 07:30:14;;;;;;;;;;;4.40;76.90;;;;;;5063118;28;19925;-68
2022/01/31 07:32:42;;;;;;;;;;;4.50;76.40;;;;;;5067596;28;20398;-69
2022/01/31 07:35:10;;;;;;;;;;;4.60;76.00;;;;;;5067753;28;19930;-69
2022/01/31 07:37:37;;;;;;;;;;;4.60;75.50;;;;;;5064335;28;19933;-69
2022/01/31 07:40:05;;;;;;;;;;;4.60;75.20;;;;;;5065730;28;19932;-68
2022/01/31 07:42:33;;;;;;;;;;;4.60;75.10;;;;;;5067323;28;19939;-68
2022/01/31 07:45:01;;;;;;;;;;;4.70;74.60;;;;;;5064799;28;19955;-68
2022/01/31 07:47:38;;;;;;;;;;;4.70;73.40;;;;;;5063167;28;19931;-68
2022/01/31 07:50:07;;;;;;;;;;;4.80;73.00;;;;;;5020516;28;19933;-68
2022/01/31 07:52:34;;;;;;;;;;;4.80;72.70;;;;;;5046934;28;20400;-68
2022/01/31 07:55:02;;;;;;;;;;;4.90;71.00;;;;;;5070563;28;19974;-69
2022/01/31 07:57:29;;;;;;;;;;;4.90;70.60;;;;;;5066828;28;20189;-69
2022/01/31 07:59:59;;;;;;;;;;;4.90;69.40;;;;;;5062557;28;20293;-69
2022/01/31 08:02:27;;;;;;;;;;;5.00;68.30;;;;;;5056105;28;19974;-69
2022/01/31 08:04:55;;;;;;;;;;;5.00;67.40;;;;;;5032357;28;19936;-68
2022/01/31 08:07:22;;;;;;;;;;;5.10;66.50;;;;;;5054824;28;19957;-69
2022/01/31 08:09:50;;;;;;;;;;;5.10;66.30;;;;;;5063927;28;19951;-69
2022/01/31 08:12:17;;;;;;;;;;;5.00;66.10;;;;;;5049137;28;19925;-68
2022/01/31 08:14:46;;;;;;;;;;;5.10;66.20;;;;;;5050229;28;19925;-68
2022/01/31 08:17:13;;;;;;;;;;;5.00;66.10;;;;;;5040797;28;20315;-68
2022/01/31 08:19:41;;;;;;;;;;;5.00;66.70;;;;;;5050722;28;19948;-68
2022/01/31 08:22:09;;;;;;;;;;;5.10;66.60;;;;;;5047831;28;19933;-68
2022/01/31 08:24:37;;;;;;;;;;;5.00;67.20;;;;;;5035361;28;19933;-67
2022/01/31 08:27:04;;;;;;;;;;;5.00;67.90;;;;;;5053910;28;19936;-68
2022/01/31 08:29:36;;;;;;;;;;;5.00;67.80;;;;;;5055535;28;19996;-68
2022/01/31 08:32:08;;;;;;;;;;;5.00;67.90;;;;;;5053235;28;20293;-67
2022/01/31 08:37:23;;;;;;;;;;;5.00;67.90;;;;;;5055584;28;19925;-67
2022/01/31 08:39:51;;;;;;;;;;;5.00;68.00;;;;;;5055375;28;19932;-67
2022/01/31 08:42:18;;;;;;;;;;;4.90;68.10;;;;;;5054259;28;20298;-67
2022/01/31 08:44:46;;;;;;;;;;;4.80;68.50;;;;;;5055287;28;19932;-67
2022/01/31 08:47:14;;;;;;;;;;;4.80;68.10;;;;;;5058801;28;20405;-67
2022/01/31 08:49:42;;;;;;;;;;;4.80;68.30;;;;;;5064597;28;19925;-67
2022/01/31 08:52:10;;;;;;;;;;;4.80;68.50;;;;;;5053800;28;20370;-67
2022/01/31 08:54:37;;;;;;;;;;;4.70;68.60;;;;;;5054003;28;19925;-67
2022/01/31 08:57:04;;;;;;;;;;;4.70;68.20;;;;;;5053803;28;19929;-67
2022/01/31 08:59:33;;;;;;;;;;;4.80;67.30;;;;;;5050572;28;20378;-67
2022/01/31 09:02:06;;;;;;;;;;;4.80;67.20;;;;;;5052403;28;19924;-67
2022/01/31 09:04:41;;;;;;;;;;;5.00;66.90;;;;;;5054095;28;19925;-66
2022/01/31 09:07:08;;;;;;;;;;;5.10;66.50;;;;;;5050521;28;20477;-67
2022/01/31 09:09:36;;;;;;;;;;;5.10;66.40;;;;;;5054235;28;19947;-67
2022/01/31 09:12:06;;;;;;;;;;;5.20;66.00;;;;;;5054423;28;19947;-67
2022/01/31 09:14:33;;;;;;;;;;;5.30;65.70;;;;;;5057137;28;19925;-68
2022/01/31 09:17:01;;;;;;;;;;;5.30;65.40;;;;;;5054437;28;19925;-67
2022/01/31 09:19:29;;;;;;;;;;;5.30;65.00;;;;;;5054642;28;19924;-67
2022/01/31 09:21:56;;;;;;;;;;;5.30;65.00;;;;;;5054504;28;20289;-68
2022/01/31 09:24:24;;;;;;;;;;;5.30;65.30;;;;;;5054436;28;19924;-66
2022/01/31 09:26:51;;;;;;;;;;;5.30;65.00;;;;;;5052426;28;19925;-66
2022/01/31 09:29:19;;;;;;;;;;;5.40;64.80;;;;;;5064946;28;19943;-67
2022/01/31 09:34:57;;;;;;;;;;;5.40;64.40;;;;;;5392432;23;19913;-67
2022/01/31 09:37:25;;;;;;;;;;;5.50;63.90;;;;;;4885124;29;19947;-67
2022/01/31 09:39:53;;;;;;;;;;;5.50;63.90;;;;;;4887046;29;19947;-68
2022/01/31 09:42:30;;;;;;;;;;;5.40;63.60;;;;;;4897315;29;19944;-67
2022/01/31 09:45:10;;;;;;;;;;;5.40;63.90;;;;;;4889080;29;19928;-67
2022/01/31 09:50:26;;;;;;;;;;;5.30;64.40;;;;;;4896995;29;19938;-67
2022/01/31 09:52:54;;;;;;;;;;;5.30;64.80;;;;;;4889091;29;19943;-68
2022/01/31 09:55:24;;;;;;;;;;;5.30;64.10;;;;;;4880685;29;19951;-68
2022/01/31 09:57:52;;;;;;;;;;;5.30;64.40;;;;;;4892294;29;19931;-67
2022/01/31 10:00:29;;;;;;;;;;;5.30;64.40;;;;;;4897723;29;19928;-67
2022/01/31 10:03:07;;;;;;;;;;;5.30;64.30;;;;;;4898564;29;19927;-67
2022/01/31 10:05:36;;;;;;;;;;;5.30;64.80;;;;;;4898137;29;19950;-68
2022/01/31 10:08:10;;;;;;;;;;;5.30;65.00;;;;;;4897685;29;19927;-67
2022/01/31 10:10:43;;;;;;;;;;;5.50;65.00;;;;;;4880102;29;19927;-67
2022/01/31 10:16:32;;;;;;;;;;;5.80;64.60;;;;;;4880050;29;19928;-67
2022/01/31 10:19:20;;;;;;;;;;;6.00;64.40;;;;;;4883453;29;19928;-68
2022/01/31 10:21:54;;;;;;;;;;;6.10;64.10;;;;;;4897823;29;20304;-67
2022/01/31 10:24:22;;;;;;;;;;;6.10;64.30;;;;;;4891990;29;19932;-67
2022/01/31 10:26:50;;;;;;;;;;;6.00;64.40;;;;;;4878478;29;19928;-68
2022/01/31 10:29:18;;;;;;;;;;;6.00;65.00;;;;;;4877434;29;19935;-67
2022/01/31 10:32:17;;;;;;;;;;;6.00;65.20;;;;;;4877289;29;19928;-67
2022/01/31 10:34:47;;;;;;;;;;;6.00;65.60;;;;;;4873472;29;19932;-68
2022/01/31 10:37:15;;;;;;;;;;;6.00;65.60;;;;;;4878066;29;20317;-67
2022/01/31 10:53:07;;;;;;;;;;;6.10;66.40;;;;;;4877090;29;19928;-67
2022/01/31 10:55:35;;;;;;;;;;;6.10;66.80;;;;;;4878641;29;20305;-69
2022/01/31 10:58:07;;;;;;;;;;;6.20;66.60;;;;;;4877124;29;20006;-67
2022/01/31 11:00:38;;;;;;;;;;;6.20;66.60;;;;;;4876594;29;19935;-67
2022/01/31 11:03:28;;;;;;;;;;;6.20;66.20;;;;;;4877895;29;19928;-67
2022/01/31 11:05:56;;;;;;;;;;;6.30;65.30;;;;;;4877239;29;20003;-67
2022/01/31 11:08:24;;;;;;;;;;;6.30;65.30;;;;;;4877706;29;19939;-68
2022/01/31 11:10:56;;;;;;;;;;;6.40;64.60;;;;;;4877929;29;20298;-67
2022/01/31 11:13:25;;;;;;;;;;;6.40;64.10;;;;;;4876244;29;19932;-67
2022/01/31 11:15:53;;;;;;;;;;;6.30;63.70;;;;;;4876324;29;19931;-68
2022/01/31 11:18:28;;;;;;;;;;;6.50;63.60;;;;;;4875236;29;19932;-68
2022/01/31 11:20:58;;;;;;;;;;;6.50;64.00;;;;;;4844080;29;19928;-68
2022/01/31 11:23:26;;;;;;;;;;;6.70;62.80;;;;;;4877436;29;19928;-68
2022/01/31 11:25:59;;;;;;;;;;;6.80;62.30;;;;;;4889885;29;19935;-69
2022/01/31 11:28:31;;;;;;;;;;;6.80;61.90;;;;;;4881090;29;19939;-68
2022/01/31 11:31:01;;;;;;;;;;;6.90;60.00;;;;;;4879008;29;19935;-68
2022/01/31 11:33:29;;;;;;;;;;;6.90;59.70;;;;;;4878158;29;19928;-68
2022/01/31 11:35:57;;;;;;;;;;;6.90;59.60;;;;;;4876859;29;19935;-67
2022/01/31 11:38:25;;;;;;;;;;;7.00;58.90;;;;;;4878679;29;19935;-67
2022/01/31 11:40:53;;;;;;;;;;;7.00;59.10;;;;;;4878131;29;19928;-67
2022/01/31 11:43:21;;;;;;;;;;;7.20;59.00;;;;;;4878831;29;19928;-67
2022/01/31 11:45:51;;;;;;;;;;;7.30;59.00;;;;;;4878472;29;20397;-66
2022/01/31 11:48:24;;;;;;;;;;;7.30;57.60;;;;;;4878775;29;20378;-68
2022/01/31 11:50:53;;;;;;;;;;;7.30;57.60;;;;;;4876184;29;19927;-68
2022/01/31 11:53:28;;;;;;;;;;;7.30;57.60;;;;;;4875953;29;19935;-67
2022/01/31 11:55:59;;;;;;;;;;;7.50;58.10;;;;;;4877399;29;19935;-68
2022/01/31 11:58:30;;;;;;;;;;;7.80;57.90;;;;;;4877934;29;20293;-68
2022/01/31 12:00:59;;;;;;;;;;;7.80;57.40;;;;;;4879135;29;19943;-68
2022/01/31 12:03:27;;;;;;;;;;;7.80;56.70;;;;;;4881316;29;19935;-68
2022/01/31 12:05:55;;;;;;;;;;;7.80;57.20;;;;;;4879030;29;19936;-68
2022/01/31 12:08:32;;;;;;;;;;;7.70;57.80;;;;;;4877953;29;19932;-67
2022/01/31 12:11:07;;;;;;;;;;;7.60;58.40;;;;;;4879869;29;19947;-67
2022/01/31 12:13:37;;;;;;;;;;;7.60;58.50;;;;;;4879556;29;19935;-67
2022/01/31 12:16:23;;;;;;;;;;;7.60;59.10;;;;;;4878223;29;19932;-67
2022/01/31 12:19:05;;;;;;;;;;;7.60;58.70;;;;;;4859603;29;20310;-67
2022/01/31 12:24:42;;;;;;;;;;;7.60;59.40;;;;;;4881858;29;19939;-68
2022/01/31 12:27:09;;;;;;;;;;;7.50;59.90;;;;;;4878356;29;20363;-68
2022/01/31 12:29:40;;;;;;;;;;;7.40;60.60;;;;;;4873135;29;19934;-67
2022/01/31 12:32:12;;;;;;;;;;;7.40;60.70;;;;;;4871129;29;19928;-67
2022/01/31 12:34:52;;;;;;;;;;;7.30;60.80;;;;;;4871550;29;21954;-68
2022/01/31 12:37:21;;;;;;;;;;;7.30;61.30;;;;;;4878917;29;19928;-67
2022/01/31 12:39:58;;;;;;;;;;;7.40;61.90;;;;;;4877354;29;20385;-67
2022/01/31 12:45:24;;;;;;;;;;;7.90;62.80;;;;;;4881329;29;19932;-68
2022/01/31 12:48:10;;;;;;;;;;;7.90;64.10;;;;;;4877667;29;19932;-68
2022/01/31 12:50:37;;;;;;;;;;;8.30;65.00;;;;;;4880109;29;19935;-68
2022/01/31 12:53:06;;;;;;;;;;;8.80;64.40;;;;;;4879714;29;19931;-68
2022/01/31 12:55:34;;;;;;;;;;;8.90;63.70;;;;;;4877051;29;19932;-67
2022/01/31 12:58:03;;;;;;;;;;;9.00;63.10;;;;;;4877880;29;19928;-68
2022/01/31 13:00:40;;;;;;;;;;;9.20;62.90;;;;;;4872870;29;19935;-67
2022/01/31 13:03:32;;;;;;;;;;;9.40;62.30;;;;;;4873379;29;19935;-67
2022/01/31 13:06:25;;;;;;;;;;;9.80;62.10;;;;;;4878371;29;19928;-67
2022/01/31 13:08:53;;;;;;;;;;;10.10;61.60;;;;;;4880420;29;19935;-68
2022/01/31 13:11:20;;;;;;;;;;;10.00;61.30;;;;;;4875028;29;19936;-68
2022/01/31 13:13:48;;;;;;;;;;;9.90;61.50;;;;;;4880233;29;19928;-68
2022/01/31 13:16:16;;;;;;;;;;;9.50;62.50;;;;;;4880445;29;19927;-67
2022/01/31 13:18:45;;;;;;;;;;;9.30;63.30;;;;;;4878836;29;19960;-67
2022/01/31 13:21:13;;;;;;;;;;;9.30;64.00;;;;;;4877090;29;19928;-67
2022/01/31 13:23:43;;;;;;;;;;;9.00;63.70;;;;;;4878975;29;19928;-67
2022/01/31 13:26:10;;;;;;;;;;;8.70;64.70;;;;;;4879313;29;19928;-67
2022/01/31 13:28:38;;;;;;;;;;;8.30;65.50;;;;;;4881389;29;19928;-68
2022/01/31 13:31:09;;;;;;;;;;;8.00;66.50;;;;;;4878285;29;19931;-67
2022/01/31 13:33:43;;;;;;;;;;;7.70;67.00;;;;;;4879278;29;19947;-68
2022/01/31 13:36:11;;;;;;;;;;;7.60;67.60;;;;;;4865573;29;19928;-67
2022/01/31 13:38:39;;;;;;;;;;;7.60;68.10;;;;;;4880478;29;19928;-68
2022/01/31 13:41:06;;;;;;;;;;;7.80;67.80;;;;;;4878474;29;19950;-69
2022/01/31 13:43:36;;;;;;;;;;;7.80;67.50;;;;;;4877423;29;20535;-68
2022/01/31 13:46:29;;;;;;;;;;;7.80;67.40;;;;;;4874759;29;19932;-67
2022/01/31 13:51:37;;;;;;;;;;;7.40;68.60;;;;;;4874608;29;19943;-66
2022/01/31 13:54:08;;;;;;;;;;;7.30;69.00;;;;;;4879164;29;19932;-67
2022/01/31 13:56:36;;;;;;;;;;;7.20;69.60;;;;;;4879784;29;19939;-67
2022/01/31 13:59:11;;;;;;;;;;;7.10;69.60;;;;;;4879818;29;19935;-67
2022/01/31 14:01:38;;;;;;;;;;;7.10;70.10;;;;;;4880248;29;19928;-67
2022/01/31 14:04:06;;;;;;;;;;;7.00;70.60;;;;;;4879475;29;19935;-67
2022/01/31 14:06:34;;;;;;;;;;;6.90;70.80;;;;;;4860376;29;19928;-68
2022/01/31 14:09:04;;;;;;;;;;;7.00;70.80;;;;;;4877759;29;19927;-66
2022/01/31 14:11:36;;;;;;;;;;;6.90;70.70;;;;;;4879512;29;19943;-67
2022/01/31 14:14:04;;;;;;;;;;;6.90;71.10;;;;;;4879876;29;20301;-67
2022/01/31 14:16:34;;;;;;;;;;;7.00;71.40;;;;;;4878340;29;20298;-67
2022/01/31 14:19:07;;;;;;;;;;;7.10;71.40;;;;;;4877918;29;20309;-67
2022/01/31 14:21:35;;;;;;;;;;;7.20;71.30;;;;;;4880136;29;19940;-68
2022/01/31 14:24:03;;;;;;;;;;;7.10;71.60;;;;;;4877861;29;19947;-67
2022/01/31 14:26:51;;;;;;;;;;;7.20;71.80;;;;;;4877671;29;20326;-67
2022/01/31 14:29:24;;;;;;;;;;;7.00;72.00;;;;;;4878888;29;19947;-67
2022/01/31 14:31:52;;;;;;;;;;;7.00;72.40;;;;;;4879912;29;19944;-67
2022/01/31 14:34:37;;;;;;;;;;;6.90;72.70;;;;;;4878976;29;19935;-67
2022/01/31 14:37:05;;;;;;;;;;;6.80;73.20;;;;;;4879435;29;20374;-67
2022/01/31 14:39:40;;;;;;;;;;;6.80;73.60;;;;;;4862789;29;19928;-67
2022/01/31 14:47:24;;;;;;;;;;;6.70;74.70;;;;;;4877995;29;19927;-67
2022/01/31 14:50:11;;;;;;;;;;;6.70;75.20;;;;;;4878842;29;19928;-67
2022/01/31 14:52:39;;;;;;;;;;;6.70;75.90;;;;;;4877809;29;20420;-68
2022/01/31 14:55:08;;;;;;;;;;;6.60;76.70;;;;;;4874324;29;20390;-67
2022/01/31 14:57:36;;;;;;;;;;;6.50;77.20;;;;;;4875842;29;19928;-67
2022/01/31 15:00:08;;;;;;;;;;;6.40;77.50;;;;;;4875998;29;19935;-67
2022/01/31 15:02:36;;;;;;;;;;;6.40;77.60;;;;;;4875473;29;20282;-67
2022/01/31 15:05:09;;;;;;;;;;;6.50;77.70;;;;;;4874923;29;19943;-66
2022/01/31 15:07:37;;;;;;;;;;;6.50;77.50;;;;;;4867522;29;20299;-67
2022/01/31 15:10:05;;;;;;;;;;;6.60;77.30;;;;;;4870235;29;19936;-68
2022/01/31 15:12:33;;;;;;;;;;;6.60;77.20;;;;;;4871449;29;19936;-71
2022/01/31 15:15:01;;;;;;;;;;;6.60;77.20;;;;;;4891515;29;19935;-67
2022/01/31 15:17:31;;;;;;;;;;;6.70;77.30;;;;;;4865627;29;19935;-67
2022/01/31 15:19:58;;;;;;;;;;;6.60;77.40;;;;;;4875062;29;20281;-67
2022/01/31 15:22:27;;;;;;;;;;;6.50;77.60;;;;;;4876214;29;19935;-67
2022/01/31 15:24:54;;;;;;;;;;;6.50;78.00;;;;;;4876604;29;19932;-67
2022/01/31 15:27:22;;;;;;;;;;;6.40;78.40;;;;;;4867675;29;19927;-67